Terminal Aerodrome Forecast
Issued by NWS Columbia, SC

Home | Current Version | Previous Version | Text Only | Print | Product List | Glossary On
Versions: 1 2 3 4 5 6 7 8 9 10 11 12 13 14 15 16 17 18 19 20 21 22 23 24 25 26 27 28 29 30 31 32 33 34 35 36
385
FTUS42 KCAE 061249 AAA
TAFCAE
TAF AMD
KCAE 061249Z 0613/0712 09006KT 1/2SM -RA FG OVC004
     FM061400 09006KT 3SM RA BR OVC003
     FM061700 10006KT 5SM -SHRA BR OVC007
     FM062000 29006KT 4SM BR OVC010
     FM062300 31004KT 5SM BR SCT015 BKN250
     FM070600 VRB03KT 1SM BR SCT003=

USA.gov is the U.S. government's official web portal to all federal, state and local government web resources and services.